Time;durP1;ratioP1;P1;durP2;ratioP2;P2;SDS_P1;SDS_P2;PMS_P1;PMS_P2;Temp;Humidity;BMP_temperature;BMP_pressure;BME280_temperature;BME280_humidity;BME280_pressure;Samples;Min_cycle;Max_cycle;Signal;HPM_P1;HPM_P2
2023/09/02 00:00:36;;;;;;;8.43;6.97;;;12.60;99.90;;;;;;4987438;28;20503;-75
2023/09/02 00:03:02;;;;;;;8.52;5.20;;;12.50;99.90;;;;;;4984530;28;20046;-75
2023/09/02 00:05:27;;;;;;;8.20;4.90;;;12.50;99.90;;;;;;5002753;28;20531;-76
2023/09/02 00:07:53;;;;;;;7.88;5.57;;;12.40;99.90;;;;;;4973989;28;20046;-75
2023/09/02 00:10:19;;;;;;;7.15;5.50;;;12.30;99.90;;;;;;4987417;28;20049;-75
2023/09/02 00:12:44;;;;;;;7.53;5.68;;;12.20;99.90;;;;;;4987601;28;20034;-75
2023/09/02 00:15:10;;;;;;;7.10;5.80;;;12.10;99.90;;;;;;4988160;28;20042;-75
2023/09/02 00:17:36;;;;;;;7.00;5.18;;;12.10;99.90;;;;;;5004650;28;20113;-76
2023/09/02 00:20:07;;;;;;;7.18;5.10;;;12.00;99.90;;;;;;5004472;28;20031;-76
2023/09/02 00:22:33;;;;;;;6.10;5.13;;;11.90;99.90;;;;;;4988473;28;20045;-75
2023/09/02 00:24:59;;;;;;;7.45;5.57;;;11.90;99.90;;;;;;4970953;28;20030;-76
2023/09/02 00:27:25;;;;;;;6.60;5.22;;;11.80;99.90;;;;;;5004843;28;20485;-75
2023/09/02 00:29:50;;;;;;;6.32;4.57;;;11.90;99.90;;;;;;4988293;28;20050;-75
2023/09/02 00:32:16;;;;;;;5.90;4.65;;;11.90;99.90;;;;;;4987021;28;20046;-75
2023/09/02 00:34:42;;;;;;;6.15;4.80;;;11.90;99.90;;;;;;4985542;28;20622;-75
2023/09/02 00:37:08;;;;;;;6.57;5.18;;;11.80;99.90;;;;;;5007883;28;20045;-76
2023/09/02 00:39:34;;;;;;;5.93;5.03;;;11.70;99.90;;;;;;4988254;28;20038;-76
2023/09/02 00:42:00;;;;;;;7.60;5.03;;;11.70;99.90;;;;;;4972777;28;20112;-75
2023/09/02 00:44:26;;;;;;;8.10;5.13;;;11.60;99.90;;;;;;4983647;28;20508;-75
2023/09/02 00:46:52;;;;;;;6.43;4.82;;;11.60;99.90;;;;;;5000714;28;20129;-75
2023/09/02 00:49:18;;;;;;;7.38;4.90;;;11.60;99.90;;;;;;4993657;28;20092;-75
2023/09/02 00:51:44;;;;;;;5.70;4.55;;;11.70;99.90;;;;;;4986383;28;20042;-75
2023/09/02 00:54:10;;;;;;;8.10;5.03;;;11.60;99.90;;;;;;5002678;28;20046;-76
2023/09/02 00:56:39;;;;;;;6.03;4.90;;;11.70;99.90;;;;;;4988857;28;20052;-75
2023/09/02 00:59:05;;;;;;;6.75;4.65;;;11.70;99.90;;;;;;5004464;28;20074;-75
2023/09/02 01:01:34;;;;;;;7.93;4.65;;;11.70;99.90;;;;;;4995324;28;20484;-76
2023/09/02 01:04:03;;;;;;;7.60;4.90;;;11.80;99.90;;;;;;5001433;28;20042;-75
2023/09/02 01:06:29;;;;;;;8.13;5.15;;;11.80;99.90;;;;;;4986265;28;20080;-75
2023/09/02 01:08:55;;;;;;;6.93;4.75;;;11.80;99.90;;;;;;4997453;28;20676;-75
2023/09/02 01:11:21;;;;;;;7.60;5.00;;;11.80;99.90;;;;;;4987863;28;20048;-75
2023/09/02 01:13:49;;;;;;;7.03;5.00;;;11.90;99.90;;;;;;4985054;28;20030;-76
2023/09/02 01:16:14;;;;;;;7.03;4.55;;;11.80;99.90;;;;;;4985759;28;20038;-75
2023/09/02 01:18:40;;;;;;;6.38;5.03;;;11.90;99.90;;;;;;4984339;28;20038;-75
2023/09/02 01:21:43;;;;;;;9.68;4.95;;;11.80;99.90;;;;;;4972325;28;20042;-75
2023/09/02 01:24:18;;;;;;;7.00;5.28;;;11.90;99.90;;;;;;4979745;28;20050;-75
2023/09/02 01:27:03;;;;;;;6.85;5.38;;;11.90;99.90;;;;;;4972117;28;20475;-75
2023/09/02 01:29:33;;;;;;;7.07;5.20;;;11.90;99.90;;;;;;5000789;28;20059;-75
2023/09/02 01:32:01;;;;;;;6.78;5.03;;;11.80;99.90;;;;;;4981722;28;20129;-74
2023/09/02 01:34:30;;;;;;;7.35;5.03;;;11.80;99.90;;;;;;4986507;28;20494;-75
2023/09/02 01:36:57;;;;;;;7.38;4.85;;;11.70;99.90;;;;;;5008222;28;20042;-75
2023/09/02 01:39:25;;;;;;;6.57;4.75;;;11.70;99.90;;;;;;4976359;28;20046;-74
2023/09/02 01:41:52;;;;;;;6.60;5.18;;;11.60;99.90;;;;;;4984963;28;20579;-74
2023/09/02 01:44:19;;;;;;;6.45;4.60;;;11.50;99.90;;;;;;4982689;28;20141;-74
2023/09/02 01:46:46;;;;;;;7.18;3.92;;;11.50;99.90;;;;;;4993492;28;20038;-74
2023/09/02 01:49:13;;;;;;;4.85;4.13;;;11.50;99.90;;;;;;4972748;28;20049;-75
2023/09/02 01:51:40;;;;;;;6.50;4.30;;;11.50;99.90;;;;;;4977118;28;20038;-74
2023/09/02 01:54:07;;;;;;;5.97;4.10;;;11.50;99.90;;;;;;4990425;28;20050;-74
2023/09/02 01:56:33;;;;;;;4.07;3.35;;;11.60;99.90;;;;;;4983715;28;20049;-74
2023/09/02 01:58:59;;;;;;;4.70;4.00;;;11.60;99.90;;;;;;5002504;28;20038;-74
2023/09/02 02:01:25;;;;;;;4.78;4.00;;;11.60;99.90;;;;;;4988638;28;20206;-75
2023/09/02 02:04:22;;;;;;;5.38;3.90;;;11.60;99.90;;;;;;4990002;28;20488;-74
2023/09/02 02:06:50;;;;;;;;;;;11.50;99.90;;;;;;4986934;28;20573;-75
2023/09/02 02:09:31;;;;;;;5.68;3.40;;;11.40;99.90;;;;;;4987974;28;20288;-75
2023/09/02 02:11:57;;;;;;;4.03;3.45;;;11.40;99.90;;;;;;4984399;28;20039;-75
2023/09/02 02:14:23;;;;;;;6.95;3.80;;;11.30;99.90;;;;;;4970498;28;20049;-75
2023/09/02 02:16:49;;;;;;;5.05;3.58;;;11.30;99.90;;;;;;4983720;28;20030;-75
2023/09/02 02:19:14;;;;;;;4.32;3.53;;;11.30;99.90;;;;;;4994283;28;20054;-75
2023/09/02 02:21:40;;;;;;;5.70;3.15;;;11.20;99.90;;;;;;4977507;28;20496;-74
2023/09/02 02:24:06;;;;;;;4.40;3.67;;;11.20;99.90;;;;;;4992283;28;20041;-74
2023/09/02 02:26:32;;;;;;;4.70;3.83;;;11.10;99.90;;;;;;4972153;28;20046;-75
2023/09/02 02:28:57;;;;;;;5.53;3.95;;;11.10;99.90;;;;;;4983426;28;20576;-75
2023/09/02 02:31:23;;;;;;;6.53;3.65;;;11.10;99.90;;;;;;4989484;28;20046;-75
2023/09/02 02:33:50;;;;;;;4.45;3.40;;;11.10;99.90;;;;;;4978110;28;20138;-75
2023/09/02 02:36:15;;;;;;;4.75;3.67;;;11.20;99.90;;;;;;5000034;28;20138;-74
2023/09/02 02:38:41;;;;;;;5.18;3.92;;;11.20;99.90;;;;;;4967330;28;20129;-74
2023/09/02 02:41:07;;;;;;;5.25;4.00;;;11.20;99.90;;;;;;4984938;28;20125;-74
2023/09/02 02:43:33;;;;;;;5.53;3.92;;;11.20;99.90;;;;;;4983791;28;20045;-75
2023/09/02 02:45:58;;;;;;;5.25;3.97;;;11.10;99.90;;;;;;4987697;28;20096;-75
2023/09/02 02:48:32;;;;;;;4.80;3.60;;;11.10;99.90;;;;;;4982979;28;20038;-74
2023/09/02 02:50:58;;;;;;;5.78;3.67;;;11.10;99.90;;;;;;4984955;28;20061;-75
2023/09/02 02:53:24;;;;;;;5.15;4.00;;;11.10;99.90;;;;;;4986236;28;20191;-75
2023/09/02 02:55:50;;;;;;;6.25;3.97;;;11.00;99.90;;;;;;4967400;28;20038;-75
2023/09/02 02:58:16;;;;;;;8.02;4.35;;;11.10;99.90;;;;;;4981394;28;20042;-75
2023/09/02 03:00:43;;;;;;;5.45;4.03;;;11.00;99.90;;;;;;4993009;28;20599;-75
2023/09/02 03:03:09;;;;;;;5.65;4.22;;;11.00;99.90;;;;;;4983735;28;20046;-75
2023/09/02 03:05:39;;;;;;;5.50;3.53;;;10.90;99.90;;;;;;4986108;28;20111;-75
2023/09/02 03:08:06;;;;;;;6.22;3.83;;;10.90;99.90;;;;;;4978674;28;20038;-75
2023/09/02 03:10:35;;;;;;;4.85;3.70;;;10.80;99.90;;;;;;4969403;28;20156;-75
2023/09/02 03:13:01;;;;;;;5.22;3.50;;;10.90;99.90;;;;;;4991085;28;20435;-75
2023/09/02 03:15:27;;;;;;;6.35;3.67;;;10.90;99.90;;;;;;4989286;28;20085;-75
2023/09/02 03:17:52;;;;;;;4.43;3.28;;;10.90;99.90;;;;;;4995884;28;20077;-75
2023/09/02 03:20:18;;;;;;;5.95;3.40;;;10.90;99.90;;;;;;5001845;28;20038;-75
2023/09/02 03:22:43;;;;;;;6.07;3.60;;;10.90;99.90;;;;;;4992494;28;20050;-75
2023/09/02 03:25:09;;;;;;;7.80;3.20;;;10.90;99.90;;;;;;4985938;28;20056;-75
2023/09/02 03:27:38;;;;;;;2.70;2.42;;;11.00;99.90;;;;;;4984292;28;20065;-76
2023/09/02 03:30:08;;;;;;;3.20;2.80;;;11.00;99.90;;;;;;4981423;28;20062;-75
2023/09/02 03:32:34;;;;;;;3.47;2.70;;;11.00;99.90;;;;;;5000404;28;20057;-75
2023/09/02 03:35:01;;;;;;;3.38;2.38;;;11.00;99.90;;;;;;4970965;28;20042;-75
2023/09/02 03:37:27;;;;;;;3.33;2.35;;;11.10;99.90;;;;;;4986666;28;20677;-76
2023/09/02 03:39:57;;;;;;;4.22;3.00;;;11.10;99.90;;;;;;5004050;28;20580;-76
2023/09/02 03:42:22;;;;;;;6.82;3.30;;;11.10;99.90;;;;;;4988429;28;20054;-75
2023/09/02 03:44:48;;;;;;;4.47;3.38;;;11.10;99.90;;;;;;4970664;28;20038;-76
2023/09/02 03:47:14;;;;;;;4.60;3.33;;;11.10;99.90;;;;;;4987461;28;20042;-75
2023/09/02 03:49:40;;;;;;;5.25;3.80;;;11.10;99.90;;;;;;4968818;28;20042;-75
2023/09/02 03:52:05;;;;;;;6.57;4.57;;;11.10;99.90;;;;;;5000668;28;20034;-75
2023/09/02 03:54:31;;;;;;;6.32;4.28;;;11.10;99.90;;;;;;5003037;28;20038;-76
2023/09/02 03:56:57;;;;;;;9.60;4.15;;;11.00;99.90;;;;;;4985697;28;20030;-76
2023/09/02 03:59:22;;;;;;;4.95;3.13;;;11.00;99.90;;;;;;5001784;28;20096;-76
2023/09/02 04:01:48;;;;;;;4.72;3.33;;;11.00;99.90;;;;;;4979424;28;20046;-75
2023/09/02 04:04:13;;;;;;;6.78;3.65;;;10.90;99.90;;;;;;4972132;28;20070;-75
2023/09/02 04:06:39;;;;;;;7.13;3.75;;;10.90;99.90;;;;;;4968931;28;20101;-75
2023/09/02 04:09:08;;;;;;;5.28;3.70;;;11.00;99.90;;;;;;4972217;28;20042;-75
2023/09/02 04:11:34;;;;;;;4.85;3.40;;;11.00;99.90;;;;;;4972020;28;20096;-75
2023/09/02 04:14:00;;;;;;;5.28;3.80;;;11.10;99.90;;;;;;4991068;28;20464;-75
2023/09/02 04:16:26;;;;;;;5.70;4.15;;;11.20;99.90;;;;;;4991269;28;20042;-76
2023/09/02 04:18:52;;;;;;;6.22;3.90;;;11.30;99.90;;;;;;5003931;28;20536;-75
2023/09/02 04:21:18;;;;;;;6.53;4.20;;;11.30;99.90;;;;;;5004468;28;20058;-75
2023/09/02 04:23:43;;;;;;;5.38;3.90;;;11.40;99.90;;;;;;4983784;28;20119;-75
2023/09/02 04:26:09;;;;;;;6.35;4.45;;;11.40;99.90;;;;;;4970230;28;20100;-75
2023/09/02 04:28:35;;;;;;;5.78;4.05;;;11.40;99.90;;;;;;4987050;28;20050;-76
2023/09/02 04:31:00;;;;;;;6.78;3.75;;;11.40;99.90;;;;;;5003153;28;20605;-75
2023/09/02 04:33:26;;;;;;;4.85;3.63;;;11.40;99.90;;;;;;4988020;28;20034;-75
2023/09/02 04:35:52;;;;;;;6.25;3.38;;;11.40;99.90;;;;;;5000605;28;20104;-75
2023/09/02 04:38:18;;;;;;;4.97;3.50;;;11.50;99.90;;;;;;5000322;28;20048;-75
2023/09/02 04:40:44;;;;;;;4.68;3.00;;;11.50;99.90;;;;;;5002739;28;20045;-74
2023/09/02 04:43:12;;;;;;;6.30;3.50;;;11.50;99.90;;;;;;4992089;28;20054;-74
2023/09/02 04:45:39;;;;;;;4.50;3.20;;;11.50;99.90;;;;;;4979204;28;20043;-74
2023/09/02 04:48:06;;;;;;;5.18;3.40;;;11.50;99.90;;;;;;4996816;28;20061;-74
2023/09/02 04:50:33;;;;;;;6.97;3.40;;;11.50;99.90;;;;;;4989044;28;20068;-73
2023/09/02 04:52:59;;;;;;;5.32;4.15;;;11.60;99.90;;;;;;4970699;28;20409;-74
2023/09/02 04:55:26;;;;;;;6.40;4.40;;;11.60;99.90;;;;;;4970498;28;20108;-74
2023/09/02 04:57:53;;;;;;;8.95;5.03;;;11.60;99.90;;;;;;5000921;28;21196;-74
2023/09/02 05:00:22;;;;;;;7.63;5.32;;;11.70;99.90;;;;;;4989687;28;20034;-74
2023/09/02 05:02:48;;;;;;;7.32;5.03;;;11.80;99.90;;;;;;4978317;28;20093;-74
2023/09/02 05:05:15;;;;;;;8.30;5.30;;;11.80;99.90;;;;;;4981024;28;20043;-73
2023/09/02 05:07:41;;;;;;;8.20;5.25;;;11.90;99.90;;;;;;5000767;28;20157;-74
2023/09/02 05:10:07;;;;;;;10.88;5.45;;;11.90;99.90;;;;;;4986002;28;20509;-75
2023/09/02 05:12:36;;;;;;;10.10;5.90;;;12.00;99.90;;;;;;4971270;28;20046;-74
2023/09/02 05:15:03;;;;;;;8.40;5.35;;;12.00;99.90;;;;;;4967303;28;20065;-75
2023/09/02 05:17:29;;;;;;;9.10;5.70;;;12.10;99.90;;;;;;4972878;28;20129;-74
2023/09/02 05:19:55;;;;;;;8.77;6.07;;;12.10;99.90;;;;;;4988697;28;20089;-75
2023/09/02 05:22:21;;;;;;;11.02;6.43;;;12.20;99.90;;;;;;4984900;28;20046;-74
2023/09/02 05:24:46;;;;;;;10.77;5.95;;;12.20;99.90;;;;;;4987066;28;20045;-75
2023/09/02 05:27:13;;;;;;;10.88;6.82;;;12.30;99.90;;;;;;5002140;28;20390;-75
2023/09/02 05:29:38;;;;;;;9.00;5.80;;;12.40;99.90;;;;;;4985205;28;20698;-75
2023/09/02 05:32:04;;;;;;;10.10;5.70;;;12.40;99.90;;;;;;4986118;28;20046;-74
2023/09/02 05:34:30;;;;;;;9.95;6.80;;;12.50;99.90;;;;;;4985786;28;20041;-73
2023/09/02 05:36:55;;;;;;;9.98;6.03;;;12.50;99.90;;;;;;5001529;28;20034;-75
2023/09/02 05:39:21;;;;;;;8.68;5.68;;;12.50;99.90;;;;;;4999156;28;20041;-74
2023/09/02 05:41:47;;;;;;;8.82;6.20;;;12.60;99.90;;;;;;4984444;28;20444;-74
2023/09/02 05:44:13;;;;;;;10.13;6.10;;;12.70;99.90;;;;;;4983116;28;20491;-74
2023/09/02 05:46:38;;;;;;;9.32;6.15;;;12.70;99.90;;;;;;4977959;28;20068;-74
2023/09/02 05:49:04;;;;;;;10.57;6.95;;;12.80;99.90;;;;;;4986732;28;20060;-74
2023/09/02 05:51:30;;;;;;;9.48;6.35;;;12.90;99.90;;;;;;5002881;28;20053;-74
2023/09/02 05:53:55;;;;;;;9.27;6.57;;;13.00;99.90;;;;;;5002823;28;20460;-74
2023/09/02 05:56:21;;;;;;;13.85;7.68;;;13.00;99.90;;;;;;4957356;28;20043;-74
2023/09/02 05:58:47;;;;;;;10.93;7.20;;;13.10;99.90;;;;;;4967482;28;20513;-73
2023/09/02 06:01:12;;;;;;;12.40;7.82;;;13.10;99.90;;;;;;5002071;28;20042;-74
2023/09/02 06:03:38;;;;;;;10.13;7.20;;;13.10;99.90;;;;;;4983065;28;20136;-74
2023/09/02 06:06:11;;;;;;;12.70;7.82;;;13.20;99.90;;;;;;4989536;28;20144;-75
2023/09/02 06:08:36;;;;;;;13.20;7.95;;;13.20;99.90;;;;;;4967641;28;20048;-74
2023/09/02 06:11:03;;;;;;;11.98;7.60;;;13.20;99.90;;;;;;4983054;28;20398;-75
2023/09/02 06:13:29;;;;;;;10.65;7.50;;;13.20;99.90;;;;;;4985903;28;20049;-75
2023/09/02 06:16:05;;;;;;;11.65;7.88;;;13.30;99.90;;;;;;4969882;28;20034;-74
2023/09/02 06:18:32;;;;;;;13.05;8.30;;;13.30;99.90;;;;;;4984362;28;20034;-76
2023/09/02 06:20:58;;;;;;;11.57;7.82;;;13.20;99.90;;;;;;4980754;28;20046;-75
2023/09/02 06:23:24;;;;;;;12.75;8.13;;;13.20;99.90;;;;;;4983020;28;20042;-74
2023/09/02 06:26:00;;;;;;;13.68;8.35;;;13.20;99.90;;;;;;5001501;28;20038;-74
2023/09/02 06:28:26;;;;;;;;;;;13.10;99.90;;;;;;4979144;28;20498;-75
2023/09/02 06:30:52;;;;;;;13.35;8.20;;;13.10;99.90;;;;;;4979316;28;19933;-75
2023/09/02 06:33:21;;;;;;;15.00;9.13;;;13.00;99.90;;;;;;4985240;28;20061;-74
2023/09/02 06:35:48;;;;;;;15.48;9.40;;;13.00;99.90;;;;;;4994239;28;20069;-75
2023/09/02 06:38:14;;;;;;;12.25;8.48;;;13.00;99.90;;;;;;4968515;28;20041;-74
2023/09/02 06:40:39;;;;;;;15.63;9.25;;;13.10;99.90;;;;;;4985786;28;20046;-75
2023/09/02 06:43:05;;;;;;;16.48;9.63;;;13.00;99.90;;;;;;4980383;28;20137;-76
2023/09/02 06:45:30;;;;;;;13.40;9.50;;;13.10;99.90;;;;;;4968950;28;20038;-75
2023/09/02 06:47:56;;;;;;;15.07;9.77;;;13.10;99.90;;;;;;4988395;28;20097;-75
2023/09/02 06:50:22;;;;;;;17.67;10.15;;;13.20;99.90;;;;;;4994499;28;20042;-75
2023/09/02 06:52:48;;;;;;;17.05;10.07;;;13.30;99.90;;;;;;4990060;28;20452;-75
2023/09/02 06:55:15;;;;;;;16.83;10.27;;;13.40;99.90;;;;;;4993532;28;20046;-75
2023/09/02 06:57:44;;;;;;;16.73;10.57;;;13.60;99.90;;;;;;4979720;28;20038;-75
2023/09/02 07:00:13;;;;;;;16.08;10.65;;;13.70;99.90;;;;;;4986756;28;20693;-75
2023/09/02 07:02:39;;;;;;;16.13;10.73;;;13.80;99.90;;;;;;4987151;28;20085;-75
2023/09/02 07:05:06;;;;;;;19.35;12.13;;;13.90;99.90;;;;;;5001358;28;20746;-75
2023/09/02 07:07:31;;;;;;;16.38;11.18;;;14.10;99.90;;;;;;5005963;28;20436;-75
2023/09/02 07:09:58;;;;;;;16.75;11.32;;;14.20;99.90;;;;;;4988816;28;20031;-75
2023/09/02 07:12:24;;;;;;;21.60;11.60;;;14.30;99.90;;;;;;5002950;28;20075;-75
2023/09/02 07:14:52;;;;;;;20.70;11.90;;;14.50;99.90;;;;;;5003123;28;20038;-75
2023/09/02 07:17:18;;;;;;;19.33;11.38;;;14.70;99.90;;;;;;4986567;28;20038;-75
2023/09/02 07:19:43;;;;;;;18.58;11.65;;;14.80;99.90;;;;;;4972682;28;20101;-75
2023/09/02 07:22:09;;;;;;;17.92;11.45;;;15.00;99.90;;;;;;5005039;28;20563;-78
2023/09/02 07:24:35;;;;;;;18.35;11.88;;;15.00;99.90;;;;;;5004571;28;20070;-76
2023/09/02 07:27:00;;;;;;;19.27;12.48;;;15.20;99.90;;;;;;4988504;28;20038;-77
2023/09/02 07:29:28;;;;;;;20.25;12.63;;;15.30;99.90;;;;;;4986467;28;20073;-77
2023/09/02 07:31:55;;;;;;;20.35;12.38;;;15.40;99.90;;;;;;5005268;28;20042;-77
2023/09/02 07:34:24;;;;;;;19.90;12.27;;;15.40;99.90;;;;;;4981513;28;20058;-77
2023/09/02 07:36:49;;;;;;;19.10;12.70;;;15.40;99.90;;;;;;4971922;28;20088;-77
2023/09/02 07:39:16;;;;;;;18.02;12.13;;;15.40;99.90;;;;;;4984322;28;20097;-78
2023/09/02 07:41:42;;;;;;;23.65;13.70;;;15.40;99.90;;;;;;4982917;28;20045;-77
2023/09/02 07:44:09;;;;;;;20.55;13.27;;;15.50;99.90;;;;;;4986394;28;20074;-77
2023/09/02 07:46:34;;;;;;;20.60;13.15;;;15.60;99.90;;;;;;4992127;28;20614;-77
2023/09/02 07:49:00;;;;;;;20.73;12.60;;;15.80;99.90;;;;;;4998457;28;20046;-77
2023/09/02 07:51:26;;;;;;;18.88;12.63;;;15.90;99.90;;;;;;4986447;28;20475;-77
2023/09/02 07:53:51;;;;;;;18.77;12.27;;;16.00;99.90;;;;;;4984048;28;20058;-76
2023/09/02 07:56:17;;;;;;;18.77;11.98;;;16.10;99.90;;;;;;4976653;28;20539;-77
2023/09/02 07:58:46;;;;;;;21.88;13.40;;;16.20;99.90;;;;;;4989512;28;20113;-77
2023/09/02 08:01:12;;;;;;;20.10;12.50;;;16.30;99.90;;;;;;4992154;28;20057;-77
2023/09/02 08:03:38;;;;;;;19.90;13.02;;;16.40;99.90;;;;;;4982810;28;20038;-77
2023/09/02 08:06:08;;;;;;;21.83;12.95;;;16.40;99.90;;;;;;4997839;28;20523;-77
2023/09/02 08:08:34;;;;;;;21.80;13.95;;;16.50;99.90;;;;;;4982673;28;20038;-77
2023/09/02 08:11:07;;;;;;;20.77;13.18;;;16.60;99.90;;;;;;5001353;28;20082;-77
2023/09/02 08:13:33;;;;;;;21.17;12.93;;;16.70;99.90;;;;;;4980962;28;20389;-77
2023/09/02 08:16:05;;;;;;;22.10;14.18;;;16.80;99.90;;;;;;5004669;28;20066;-77
2023/09/02 08:18:34;;;;;;;20.73;13.75;;;16.80;99.90;;;;;;5003495;28;20041;-77
2023/09/02 08:21:00;;;;;;;20.08;13.32;;;16.80;99.90;;;;;;5002645;28;20437;-75
2023/09/02 08:23:25;;;;;;;25.88;14.68;;;16.80;99.90;;;;;;4984232;28;20045;-77
2023/09/02 08:25:51;;;;;;;19.80;13.68;;;16.80;99.90;;;;;;4967027;28;20120;-77
2023/09/02 08:28:17;;;;;;;20.63;13.70;;;16.90;99.90;;;;;;4986917;28;20046;-77
2023/09/02 08:30:43;;;;;;;22.77;14.00;;;16.90;99.90;;;;;;4970764;28;20493;-78
2023/09/02 08:33:10;;;;;;;23.58;13.77;;;17.00;99.90;;;;;;4988575;28;20073;-78
2023/09/02 08:35:36;;;;;;;22.45;14.18;;;17.10;99.90;;;;;;4988500;28;20034;-77
2023/09/02 08:38:05;;;;;;;20.77;13.55;;;17.20;97.90;;;;;;4968926;28;20057;-78
2023/09/02 08:40:32;;;;;;;19.35;13.32;;;17.20;78.10;;;;;;4977955;28;20035;-78
2023/09/02 08:43:01;;;;;;;22.15;12.77;;;17.20;64.40;;;;;;4985074;28;20038;-78
2023/09/02 08:45:29;;;;;;;19.83;12.38;;;17.20;58.10;;;;;;5004231;28;20088;-78
2023/09/02 08:48:00;;;;;;;19.23;12.38;;;17.30;54.20;;;;;;4998130;28;20045;-77
2023/09/02 08:50:28;;;;;;;18.80;11.90;;;17.40;46.30;;;;;;4984859;28;20044;-77
2023/09/02 08:52:54;;;;;;;19.58;12.18;;;17.30;39.30;;;;;;5001467;28;20034;-79
2023/09/02 08:55:21;;;;;;;20.13;12.30;;;17.50;22.00;;;;;;5000244;28;20400;-79
2023/09/02 08:57:47;;;;;;;21.00;12.90;;;17.60;2.90;;;;;;5001785;28;21075;-79
2023/09/02 09:00:13;;;;;;;19.70;12.40;;;17.70;1.90;;;;;;4984247;28;20042;-78
2023/09/02 09:02:41;;;;;;;20.52;11.50;;;17.80;1.00;;;;;;4981646;28;20432;-78
2023/09/02 09:05:08;;;;;;;19.30;10.70;;;17.90;1.00;;;;;;4984654;28;20057;-77
2023/09/02 09:07:36;;;;;;;20.60;12.43;;;18.00;1.00;;;;;;5000481;28;20501;-77
2023/09/02 09:10:02;;;;;;;18.02;11.25;;;18.20;1.00;;;;;;4967299;28;20038;-77
2023/09/02 09:12:32;;;;;;;20.55;11.13;;;18.50;1.00;;;;;;4985348;28;20038;-75
2023/09/02 09:14:59;;;;;;;18.80;11.10;;;18.70;1.00;;;;;;4971365;28;20037;-77
2023/09/02 09:17:25;;;;;;;16.77;9.35;;;19.00;1.00;;;;;;5003220;28;20077;-77
2023/09/02 09:19:52;;;;;;;17.23;9.82;;;19.30;99.90;;;;;;4981318;28;20038;-77
2023/09/02 09:22:21;;;;;;;14.82;9.73;;;19.70;99.90;;;;;;4986764;28;20077;-77
2023/09/02 09:24:47;;;;;;;15.93;10.18;;;20.20;99.90;;;;;;4972260;28;20038;-76
2023/09/02 09:27:13;;;;;;;20.02;9.80;;;20.70;92.90;;;;;;4973788;28;20450;-76
2023/09/02 09:29:42;;;;;;;13.75;8.45;;;21.20;1.00;;;;;;4985361;28;20093;-78
2023/09/02 09:32:18;;;;;;;12.48;8.60;;;21.70;99.90;;;;;;5000217;28;20089;-76
2023/09/02 09:34:44;;;;;;;14.25;8.95;;;22.30;99.90;;;;;;4981452;28;20085;-77
2023/09/02 09:37:11;;;;;;;10.98;7.72;;;22.70;99.90;;;;;;4982448;28;20049;-76
2023/09/02 09:39:40;;;;;;;17.75;8.40;;;23.00;99.90;;;;;;4984905;28;20125;-76
2023/09/02 09:42:06;;;;;;;12.23;7.80;;;23.20;99.90;;;;;;5000366;28;20038;-77
2023/09/02 09:44:31;;;;;;;11.60;8.32;;;23.20;99.90;;;;;;5003880;28;20035;-76
2023/09/02 09:46:57;;;;;;;12.57;7.63;;;23.40;99.90;;;;;;5001257;28;20034;-77
2023/09/02 09:49:24;;;;;;;14.27;8.50;;;23.50;99.90;;;;;;4986941;28;20452;-77
2023/09/02 09:52:07;;;;;;;12.80;8.23;;;23.70;99.90;;;;;;4984587;28;20497;-77
2023/09/02 09:54:48;;;;;;;13.20;8.30;;;23.90;22.30;;;;;;4982220;28;20113;-77
2023/09/02 09:57:48;;;;;;;14.35;8.70;;;24.00;33.20;;;;;;4994546;28;20042;-77
2023/09/02 10:00:15;;;;;;;12.57;8.05;;;23.90;1.00;;;;;;4966046;28;20054;-76
2023/09/02 10:02:50;;;;;;;10.98;7.28;;;23.80;1.00;;;;;;4968915;28;20046;-76
2023/09/02 10:05:24;;;;;;;14.88;7.50;;;23.70;1.00;;;;;;4994984;28;20121;-77
2023/09/02 10:08:00;;;;;;;11.27;7.25;;;23.50;1.00;;;;;;4983689;28;20500;-77
2023/09/02 10:10:28;;;;;;;12.75;8.05;;;23.10;1.00;;;;;;4976522;28;20038;-76
2023/09/02 10:12:55;;;;;;;10.50;7.07;;;23.10;1.00;;;;;;4984480;28;20050;-77
2023/09/02 10:15:24;;;;;;;11.98;7.03;;;24.20;1.00;;;;;;4987108;28;20128;-76
2023/09/02 10:17:58;;;;;;;14.23;7.63;;;25.30;1.00;;;;;;4999348;28;20070;-77
2023/09/02 10:20:28;;;;;;;11.95;7.22;;;26.30;1.00;;;;;;4982274;28;20034;-77
2023/09/02 10:22:56;;;;;;;9.02;7.10;;;27.20;1.00;;;;;;4977524;28;20034;-77
2023/09/02 10:25:29;;;;;;;14.48;8.02;;;28.10;1.00;;;;;;4985496;28;20046;-77
2023/09/02 10:28:00;;;;;;;13.38;6.97;;;28.70;1.00;;;;;;4986341;28;20049;-75
2023/09/02 10:30:34;;;;;;;11.82;7.20;;;29.10;1.00;;;;;;4982273;28;20931;-75
2023/09/02 10:33:13;;;;;;;12.10;7.53;;;29.50;1.00;;;;;;4981781;28;20421;-75
2023/09/02 10:35:43;;;;;;;12.40;6.45;;;30.00;1.00;;;;;;4982371;28;20046;-75
2023/09/02 10:38:11;;;;;;;9.80;6.10;;;30.70;1.00;;;;;;4990291;28;20073;-76
2023/09/02 10:40:42;;;;;;;7.97;6.47;;;31.10;1.00;;;;;;4981712;28;20401;-76
2023/09/02 10:43:09;;;;;;;9.88;7.18;;;31.50;1.00;;;;;;4985740;28;20511;-76
2023/09/02 10:45:36;;;;;;;10.65;6.60;;;31.90;1.00;;;;;;4985310;28;20125;-76
2023/09/02 10:48:03;;;;;;;10.40;6.03;;;32.20;1.00;;;;;;4974303;28;20043;-76
2023/09/02 10:50:29;;;;;;;11.73;6.40;;;32.40;1.00;;;;;;4984634;28;20042;-77
2023/09/02 10:52:58;;;;;;;9.05;5.93;;;32.70;1.00;;;;;;4986114;28;20109;-77
2023/09/02 10:55:24;;;;;;;7.82;5.88;;;33.00;1.00;;;;;;5001797;28;20080;-76
2023/09/02 10:57:50;;;;;;;9.15;5.50;;;33.10;1.00;;;;;;4981734;28;20060;-77
2023/09/02 11:00:28;;;;;;;8.25;5.10;;;33.30;1.00;;;;;;4985570;28;20118;-77
2023/09/02 11:02:58;;;;;;;8.07;5.03;;;33.60;1.00;;;;;;4975486;28;20045;-77
2023/09/02 11:05:27;;;;;;;10.85;5.72;;;33.90;1.00;;;;;;5002728;28;20072;-77
2023/09/02 11:07:53;;;;;;;10.65;6.05;;;34.10;1.00;;;;;;4986274;28;20049;-76
2023/09/02 11:10:19;;;;;;;9.77;5.88;;;34.30;1.00;;;;;;4968958;28;20077;-77
2023/09/02 11:12:57;;;;;;;6.70;5.35;;;34.60;1.00;;;;;;4958154;28;20042;-76
2023/09/02 11:15:23;;;;;;;10.15;5.93;;;34.90;1.00;;;;;;4986640;28;20049;-76
2023/09/02 11:17:49;;;;;;;6.80;4.28;;;35.10;1.00;;;;;;4985882;28;20050;-77
2023/09/02 11:20:19;;;;;;;7.32;5.80;;;35.30;1.00;;;;;;4970968;28;20461;-77
2023/09/02 11:23:02;;;;;;;11.30;6.28;;;35.70;1.00;;;;;;4965797;28;20039;-77
2023/09/02 11:25:37;;;;;;;8.80;6.10;;;34.60;1.00;;;;;;4981098;28;20133;-78
2023/09/02 11:28:04;;;;;;;8.23;6.27;;;33.90;1.00;;;;;;4981480;28;20057;-77
2023/09/02 11:30:32;;;;;;;9.90;6.05;;;32.50;1.00;;;;;;4982813;28;20042;-78
2023/09/02 11:32:59;;;;;;;8.77;5.32;;;30.90;1.00;;;;;;5002767;28;20117;-77
2023/09/02 11:35:34;;;;;;;10.02;6.63;;;29.70;1.00;;;;;;4989700;28;20574;-76
2023/09/02 11:38:00;;;;;;;9.30;6.15;;;30.00;1.00;;;;;;4976712;28;20085;-77
2023/09/02 11:40:27;;;;;;;10.25;5.43;;;31.00;1.00;;;;;;4983751;28;20045;-77
2023/09/02 11:43:00;;;;;;;8.77;5.50;;;32.30;1.00;;;;;;4989410;28;20057;-77
2023/09/02 11:45:30;;;;;;;10.27;6.60;;;33.50;1.00;;;;;;4977354;28;20042;-77
2023/09/02 11:47:56;;;;;;;7.07;5.63;;;34.20;1.00;;;;;;4968881;28;20039;-77
2023/09/02 11:50:23;;;;;;;7.40;6.22;;;34.50;1.00;;;;;;4987983;28;20038;-77
2023/09/02 11:52:54;;;;;;;8.88;5.80;;;33.30;1.00;;;;;;4986572;28;20493;-78
2023/09/02 11:55:20;;;;;;;6.32;5.57;;;32.00;1.00;;;;;;4986265;28;20034;-79
2023/09/02 11:57:46;;;;;;;8.30;6.65;;;30.70;1.00;;;;;;4997048;28;20097;-78
2023/09/02 12:00:22;;;;;;;9.23;5.95;;;29.60;1.00;;;;;;4980630;28;20452;-78
2023/09/02 12:02:49;;;;;;;7.13;5.38;;;29.40;1.00;;;;;;4979883;28;20500;-78
2023/09/02 12:05:15;;;;;;;9.57;6.13;;;29.40;1.00;;;;;;4971625;28;20042;-78
2023/09/02 12:07:45;;;;;;;10.65;6.32;;;29.20;1.00;;;;;;4983367;28;20520;-78
2023/09/02 12:10:13;;;;;;;13.80;6.40;;;30.00;1.00;;;;;;4980331;28;21351;-77
2023/09/02 12:12:43;;;;;;;6.13;4.53;;;31.10;1.00;;;;;;4983100;28;20070;-78
2023/09/02 12:15:18;;;;;;;5.43;4.50;;;32.20;1.00;;;;;;5000401;28;20046;-77
2023/09/02 12:17:46;;;;;;;6.53;4.53;;;33.10;1.00;;;;;;4982956;28;20504;-78
2023/09/02 12:20:15;;;;;;;7.07;5.00;;;33.90;1.00;;;;;;4964723;28;20042;-78
2023/09/02 12:22:43;;;;;;;8.05;5.28;;;34.40;1.00;;;;;;4971426;28;20114;-78
2023/09/02 12:25:22;;;;;;;8.30;5.53;;;35.00;1.00;;;;;;4999988;28;20629;-78
2023/09/02 12:27:48;;;;;;;6.15;3.95;;;35.50;1.00;;;;;;4969737;28;20044;-78
2023/09/02 12:30:28;;;;;;;7.43;4.68;;;35.80;1.00;;;;;;4983534;28;20057;-78
2023/09/02 12:32:56;;;;;;;6.82;3.85;;;35.00;1.00;;;;;;5001528;28;20081;-77
2023/09/02 12:35:21;;;;;;;6.93;3.40;;;33.40;1.00;;;;;;4978613;28;20465;-77
2023/09/02 12:38:00;;;;;;;5.45;3.33;;;32.20;1.00;;;;;;4982348;28;20045;-78
2023/09/02 12:40:26;;;;;;;5.43;3.20;;;32.40;1.00;;;;;;4974135;28;20474;-78
2023/09/02 12:43:01;;;;;;;5.82;3.17;;;33.40;1.00;;;;;;4968383;28;20062;-78
2023/09/02 12:45:32;;;;;;;4.35;2.80;;;34.70;1.00;;;;;;4986936;28;20492;-78